Main page
METAR-TAF:

METAR-TAF

Airports :

Oil platform

Snorre B, Norway

latitude: 61-32N, longitude: 2-12E, elevation: 90 m

Current weather observation

The report was made 36 minutes ago, at 09:20 UTC
Wind 4 kt from the East/Northeast
Temperature 3°C
Humidity 70%
Pressure 1009 hPa
Visibility 10 km or more
no clouds below 1500 m and no cumulonimbus

METAR: ENQR 300920Z AUTO 07004KT CAVOK 03/M02 Q1009 W10/S3

Time: 10:56 (09:56 UTC)


TAF: missing

Weather observations and forecasts of more than 4000 airports (METAR and TAF reports).

The available stations are represented by yellow and red dots on the map.

Hover mouse over dot to see the name of the station.

Then click to see weather observations and forecasts.

To change the map : click on the green buttons with a black cross to zoom in, on the green button with a dash to zoom out, or on the green arrows for adjacent maps.


METAR-TAF: